Time;durP1;ratioP1;P1;durP2;ratioP2;P2;SDS_P1;SDS_P2;PMS_P1;PMS_P2;Temp;Humidity;BMP_temperature;BMP_pressure;BME280_temperature;BME280_humidity;BME280_pressure;Samples;Min_cycle;Max_cycle;Signal;HPM_P1;HPM_P2
2022/04/13 00:00:43;;;;;;;5.10;2.10;;;;;;;7.53;49.08;101730.84;2570831;23;20152;-62
2022/04/13 00:01:44;;;;;;;5.03;2.03;;;;;;;7.53;49.13;101737.13;2570373;23;20144;-61
2022/04/13 00:02:44;;;;;;;3.77;2.00;;;;;;;7.47;49.02;101724.88;2570891;23;20158;-61
2022/04/13 00:03:46;;;;;;;3.00;2.00;;;;;;;7.53;48.51;101726.09;2570723;23;20168;-61
2022/04/13 00:04:47;;;;;;;3.60;2.00;;;;;;;7.55;48.02;101728.47;2570815;23;20697;-61
2022/04/13 00:05:48;;;;;;;2.80;2.10;;;;;;;7.56;48.30;101738.31;2570899;23;20148;-61
2022/04/13 00:06:49;;;;;;;3.42;1.80;;;;;;;7.49;48.52;101724.50;2570796;23;20228;-62
2022/04/13 00:07:49;;;;;;;5.90;1.90;;;;;;;7.57;48.86;101735.19;2570809;23;20155;-61
2022/04/13 00:08:50;;;;;;;3.23;1.73;;;;;;;7.58;48.31;101742.28;2570958;23;20179;-61
2022/04/13 00:09:51;;;;;;;2.37;1.80;;;;;;;7.58;48.15;101741.50;2570790;23;20154;-62
2022/04/13 00:10:51;;;;;;;3.90;2.20;;;;;;;7.59;48.47;101738.34;2570758;23;20227;-61
2022/04/13 00:11:54;;;;;;;4.80;2.03;;;;;;;6.59;48.25;101582.91;2570797;23;20916;-62
2022/04/13 00:12:54;;;;;;;3.85;2.08;;;;;;;7.36;48.05;101715.75;2570791;23;20149;-62
2022/04/13 00:13:55;;;;;;;2.70;1.90;;;;;;;7.61;48.51;101740.72;2570873;23;20166;-62
2022/04/13 00:14:55;;;;;;;3.67;1.80;;;;;;;7.59;48.56;101741.09;2570803;23;20151;-61
2022/04/13 00:15:56;;;;;;;2.80;2.00;;;;;;;7.59;48.38;101743.84;2570699;23;20234;-62
2022/04/13 00:16:56;;;;;;;3.03;1.70;;;;;;;7.59;48.67;101743.06;2570970;23;20184;-62
2022/04/13 00:17:57;;;;;;;3.30;1.80;;;;;;;7.55;48.97;101748.56;2570975;23;20669;-61
2022/04/13 00:18:57;;;;;;;4.50;1.87;;;;;;;7.31;48.60;101710.59;2570828;23;20645;-61
2022/04/13 00:19:59;;;;;;;3.63;2.27;;;;;;;7.54;48.76;101741.44;2570886;23;20156;-62
2022/04/13 00:21:00;;;;;;;4.70;2.10;;;;;;;7.54;49.13;101748.97;2570709;23;20152;-62
2022/04/13 00:22:00;;;;;;;3.20;2.00;;;;;;;7.53;49.06;101741.88;2570718;23;20230;-61
2022/04/13 00:23:01;;;;;;;6.93;2.20;;;;;;;7.07;48.93;101667.09;2570423;23;20160;-61
2022/04/13 00:24:02;;;;;;;7.83;4.10;;;;;;;7.55;48.40;101743.06;2570635;23;20152;-61
2022/04/13 00:25:03;;;;;;;13.13;5.73;;;;;;;7.55;48.84;101745.81;2557587;23;20222;-61
2022/04/13 00:26:03;;;;;;;9.40;4.80;;;;;;;7.53;48.59;101741.88;2557464;23;20153;-62
2022/04/13 00:27:04;;;;;;;8.03;3.67;;;;;;;7.55;48.56;101748.56;2570829;23;20155;-62
2022/04/13 00:28:09;;;;;;;4.40;2.80;;;;;;;7.56;48.73;101750.16;2570566;23;20167;-62
2022/04/13 00:29:10;;;;;;;8.43;4.10;;;;;;;7.57;48.50;101753.69;2570910;23;20139;-61
2022/04/13 00:30:11;;;;;;;10.13;4.30;;;;;;;7.56;48.83;101754.88;2570732;23;20180;-62
2022/04/13 00:31:11;;;;;;;9.25;3.97;;;;;;;7.40;48.59;101729.56;2570669;23;20494;-62
2022/04/13 00:32:12;;;;;;;8.70;4.03;;;;;;;7.59;47.89;101757.66;2570667;23;20151;-61
2022/04/13 00:33:12;;;;;;;5.90;3.13;;;;;;;7.56;48.03;101750.16;2570723;23;20202;-62
2022/04/13 00:34:13;;;;;;;5.87;3.20;;;;;;;6.68;48.96;101610.13;2570868;23;20155;-61
2022/04/13 00:35:13;;;;;;;4.53;2.77;;;;;;;7.56;48.74;101749.34;2570665;23;20158;-62
2022/04/13 00:36:14;;;;;;;5.67;3.13;;;;;;;7.30;48.53;101717.28;2570972;23;20187;-62
2022/04/13 00:37:14;;;;;;;4.60;2.73;;;;;;;7.59;48.79;101749.38;2570684;23;20155;-62
2022/04/13 00:38:15;;;;;;;4.53;2.60;;;;;;;7.60;48.32;101755.69;2570785;23;20148;-61
2022/04/13 00:39:16;;;;;;;4.47;2.40;;;;;;;7.59;48.71;101757.66;2570707;23;20198;-62
2022/04/13 00:40:16;;;;;;;4.73;2.40;;;;;;;7.60;48.24;101750.16;2570905;23;20156;-62
2022/04/13 00:41:17;;;;;;;2.77;1.97;;;;;;;7.59;48.57;101754.13;2570595;23;20155;-62
2022/04/13 00:42:18;;;;;;;3.63;1.90;;;;;;;7.49;48.49;101735.53;2570694;23;20210;-62
2022/04/13 00:43:18;;;;;;;4.97;2.20;;;;;;;7.03;48.60;101679.28;2570445;23;20151;-62
2022/04/13 00:44:19;;;;;;;4.00;2.10;;;;;;;7.57;48.51;101742.66;2570749;23;20152;-62
2022/04/13 00:45:19;;;;;;;4.87;2.30;;;;;;;6.77;48.58;101625.16;2570615;23;20642;-61
2022/04/13 00:46:20;;;;;;;4.30;2.40;;;;;;;7.56;48.95;101744.63;2570750;23;20160;-61
2022/04/13 00:47:21;;;;;;;3.00;2.10;;;;;;;6.66;48.68;101604.22;2570666;23;20156;-62
2022/04/13 00:48:31;;;;;;;6.18;3.35;;;;;;;7.55;48.88;101745.03;2570227;23;20149;-62
2022/04/13 00:49:32;;;;;;;4.82;3.85;;;;;;;7.50;48.89;101743.44;2570775;23;20136;-62
2022/04/13 00:50:33;;;;;;;5.60;3.47;;;;;;;7.44;49.20;101741.41;2557367;23;20203;-62
2022/04/13 00:51:34;;;;;;;6.33;3.40;;;;;;;7.51;49.11;101749.72;2557367;23;20156;-61
2022/04/13 00:52:38;;;;;;;5.00;3.30;;;;;;;7.47;49.46;101762.69;2570734;23;20375;-62
2022/04/13 00:53:41;;;;;;;6.38;3.13;;;;;;;7.38;49.37;101756.72;2557218;23;20154;-61
2022/04/13 00:54:43;;;;;;;6.55;2.90;;;;;;;7.34;49.35;101756.69;2557977;23;20149;-62
2022/04/13 00:55:45;;;;;;;3.90;2.65;;;;;;;7.24;49.23;101753.88;2570659;23;20539;-61
2022/04/13 00:56:49;;;;;;;4.30;2.75;;;;;;;7.15;49.76;101737.66;2570808;23;20174;-62
2022/04/13 00:57:51;;;;;;;4.32;2.53;;;;;;;7.29;49.01;101762.56;2570670;23;20148;-62
2022/04/13 00:58:53;;;;;;;6.70;2.70;;;;;;;7.27;49.54;101753.88;2570722;23;20201;-62
2022/04/13 00:59:56;;;;;;;5.30;3.42;;;;;;;7.27;49.34;101755.84;2570613;23;20179;-62
2022/04/13 01:00:57;;;;;;;6.15;3.28;;;;;;;7.10;49.61;101720.66;2570547;23;20597;-62
2022/04/13 01:01:58;;;;;;;6.40;3.90;;;;;;;6.52;49.80;101635.16;2570448;23;20525;-62
2022/04/13 01:03:00;;;;;;;7.03;3.87;;;;;;;7.33;49.78;101751.56;2570719;23;20723;-61
2022/04/13 01:04:02;;;;;;;7.03;2.95;;;;;;;7.41;50.01;101761.47;2570438;23;20261;-62
2022/04/13 01:05:05;;;;;;;7.25;2.78;;;;;;;7.43;49.04;101754.38;2570555;23;20156;-61
2022/04/13 01:06:07;;;;;;;6.50;2.40;;;;;;;6.83;48.35;101672.44;2557233;23;20239;-61
2022/04/13 01:07:09;;;;;;;3.95;2.55;;;;;;;7.40;48.55;101757.94;2557660;23;20163;-61
2022/04/13 01:08:11;;;;;;;4.20;2.35;;;;;;;7.36;48.59;101759.88;2570573;23;20152;-61
2022/04/13 01:09:13;;;;;;;5.72;2.65;;;;;;;7.35;48.17;101755.53;2570678;23;20152;-61
2022/04/13 01:10:13;;;;;;;5.00;3.28;;;;;;;7.31;49.22;101757.47;2570571;23;20151;-62
2022/04/13 01:11:14;;;;;;;5.60;3.53;;;;;;;6.18;48.72;101583.34;2570500;23;20187;-62
2022/04/13 01:12:15;;;;;;;5.53;3.57;;;;;;;7.24;49.02;101749.16;2570551;23;20148;-62
2022/04/13 01:13:17;;;;;;;3.47;2.60;;;;;;;7.11;48.83;101725.81;2570454;23;20155;-62
2022/04/13 01:14:18;;;;;;;8.40;3.53;;;;;;;7.33;49.10;101752.34;2570586;23;20179;-62
2022/04/13 01:15:18;;;;;;;6.27;3.90;;;;;;;7.33;49.15;101757.09;2570602;23;20152;-62
2022/04/13 01:16:19;;;;;;;4.80;3.03;;;;;;;7.35;49.34;101761.03;2570613;23;20621;-61
2022/04/13 01:17:20;;;;;;;5.80;3.93;;;;;;;6.97;49.08;101702.88;2570638;23;20155;-61
2022/04/13 01:18:20;;;;;;;6.43;3.70;;;;;;;7.30;48.87;101766.13;2570648;23;20177;-62
2022/04/13 01:19:21;;;;;;;4.63;3.43;;;;;;;7.32;49.71;101789.38;2570741;23;20245;-62
2022/04/13 01:20:23;;;;;;;5.90;3.90;;;;;;;7.36;49.27;101764.56;2570570;23;20153;-62
2022/04/13 01:21:47;;;;;;;6.03;4.38;;;;;;;7.33;49.39;101768.13;2570632;23;20179;-61
2022/04/13 01:22:47;;;;;;;7.75;4.07;;;;;;;7.33;49.41;101765.38;2570651;23;20156;-62
2022/04/13 01:23:50;;;;;;;4.37;2.90;;;;;;;7.33;49.41;101760.63;2570374;23;20158;-62
2022/04/13 01:24:51;;;;;;;8.43;4.40;;;;;;;6.71;49.44;101673.50;2570657;23;20178;-61
2022/04/13 01:25:55;;;;;;;7.72;4.20;;;;;;;7.32;49.66;101761.81;2570639;23;20171;-62
2022/04/13 01:26:56;;;;;;;6.68;4.10;;;;;;;7.33;49.47;101762.59;2570447;23;20159;-62
2022/04/13 01:27:56;;;;;;;7.70;4.47;;;;;;;7.34;49.32;101759.44;2570469;23;20148;-62
2022/04/13 01:28:57;;;;;;;4.77;3.70;;;;;;;7.36;49.59;101762.63;2570619;23;20152;-61
2022/04/13 01:29:57;;;;;;;5.80;3.33;;;;;;;7.36;49.42;101762.63;2570635;23;20151;-61
2022/04/13 01:30:58;;;;;;;4.37;3.27;;;;;;;7.35;49.01;101766.56;2570452;23;20602;-61
2022/04/13 01:31:58;;;;;;;6.57;4.00;;;;;;;7.35;49.54;101769.31;2570455;23;20144;-61
2022/04/13 01:32:59;;;;;;;7.00;3.77;;;;;;;7.32;48.87;101761.00;2570479;23;20198;-62
2022/04/13 01:34:01;;;;;;;6.38;4.03;;;;;;;7.36;49.07;101776.41;2570355;23;20156;-62
2022/04/13 01:35:02;;;;;;;6.25;4.15;;;;;;;7.30;49.48;101764.16;2570554;23;20607;-62
2022/04/13 01:36:03;;;;;;;6.53;4.38;;;;;;;7.33;49.48;101763.38;2570519;23;20180;-62
2022/04/13 01:37:04;;;;;;;8.63;4.47;;;;;;;7.35;49.75;101776.78;2570570;23;20152;-62
2022/04/13 01:38:04;;;;;;;5.63;4.20;;;;;;;7.29;48.97;101770.06;2570466;23;20155;-62
2022/04/13 01:39:06;;;;;;;8.27;4.30;;;;;;;7.37;49.42;101794.53;2570475;23;20162;-62
2022/04/13 01:40:08;;;;;;;7.53;4.68;;;;;;;7.39;49.61;101772.88;2570539;23;20161;-62
2022/04/13 01:41:08;;;;;;;6.93;4.10;;;;;;;7.41;49.12;101776.06;2570512;23;20155;-62
2022/04/13 01:42:10;;;;;;;6.17;4.43;;;;;;;5.93;49.16;101541.84;2570494;23;20179;-62
2022/04/13 01:43:11;;;;;;;8.43;4.10;;;;;;;7.44;49.17;101772.50;2570261;23;20163;-61
2022/04/13 01:44:15;;;;;;;6.73;4.53;;;;;;;6.99;49.08;101698.56;2570556;23;20155;-61
2022/04/13 01:45:19;;;;;;;8.65;3.85;;;;;;;7.49;49.14;101776.91;2570257;23;20204;-62
2022/04/13 01:46:20;;;;;;;7.43;4.13;;;;;;;7.48;48.85;101781.59;2570336;23;20466;-62
2022/04/13 01:47:20;;;;;;;7.67;4.10;;;;;;;7.49;48.95;101780.44;2570269;23;20201;-61
2022/04/13 01:48:21;;;;;;;22.27;6.13;;;;;;;7.48;49.36;101773.34;2570461;23;20187;-61
2022/04/13 01:49:23;;;;;;;10.70;4.95;;;;;;;7.47;48.94;101776.47;2570477;23;20218;-61
2022/04/13 01:50:23;;;;;;;16.10;5.13;;;;;;;7.43;48.77;101770.94;2570528;23;20156;-61
2022/04/13 01:51:24;;;;;;;8.80;5.13;;;;;;;7.33;49.03;101755.09;2570231;23;20602;-62
2022/04/13 01:52:25;;;;;;;8.47;5.33;;;;;;;6.78;49.54;101681.84;2570529;23;20151;-62
2022/04/13 01:53:26;;;;;;;8.60;4.70;;;;;;;7.35;49.17;101774.03;2570171;23;20476;-62
2022/04/13 01:54:27;;;;;;;7.60;4.57;;;;;;;7.36;48.85;101773.66;2570656;23;20406;-62
2022/04/13 01:55:27;;;;;;;7.27;5.03;;;;;;;6.58;49.40;101639.19;2570373;23;20151;-62
2022/04/13 01:56:28;;;;;;;12.63;5.30;;;;;;;7.37;49.37;101769.72;2570547;23;20158;-62
2022/04/13 01:57:28;;;;;;;8.07;4.80;;;;;;;7.38;49.36;101776.03;2570439;23;20191;-62
2022/04/13 01:58:30;;;;;;;8.43;4.90;;;;;;;7.26;49.60;101782.63;2570519;23;20210;-62
2022/04/13 01:59:31;;;;;;;6.70;4.43;;;;;;;7.20;49.47;101784.16;2570385;23;20156;-62
2022/04/13 02:00:31;;;;;;;7.63;4.90;;;;;;;7.26;50.12;101781.84;2569974;23;20147;-61
2022/04/13 02:01:32;;;;;;;8.57;5.03;;;;;;;7.30;49.53;101780.72;2570259;23;20148;-62
2022/04/13 02:02:33;;;;;;;8.80;4.50;;;;;;;7.31;49.50;101785.03;2570350;23;20194;-62
2022/04/13 02:03:33;;;;;;;8.07;5.00;;;;;;;7.23;50.05;101780.63;2570117;23;20174;-62
2022/04/13 02:04:34;;;;;;;8.33;5.10;;;;;;;7.31;50.03;101784.22;2570439;23;20586;-61
2022/04/13 02:05:35;;;;;;;8.30;5.00;;;;;;;7.27;50.39;101789.72;2570478;23;20148;-61
2022/04/13 02:06:35;;;;;;;9.00;5.17;;;;;;;6.96;50.08;101753.63;2570454;23;20148;-61
2022/04/13 02:07:36;;;;;;;9.83;5.23;;;;;;;7.03;50.08;101768.25;2570479;23;20155;-62
2022/04/13 02:08:36;;;;;;;8.60;4.90;;;;;;;7.20;50.31;101816.44;2570332;23;20150;-61
2022/04/13 02:09:37;;;;;;;8.70;5.37;;;;;;;7.24;49.96;101792.47;2570239;23;20155;-62
2022/04/13 02:10:37;;;;;;;7.60;4.90;;;;;;;7.29;50.34;101792.88;2570472;23;20565;-62
2022/04/13 02:11:38;;;;;;;7.83;4.90;;;;;;;7.26;50.37;101796.41;2570008;23;20175;-62
2022/04/13 02:12:39;;;;;;;10.20;4.97;;;;;;;7.28;50.19;101791.31;2570387;23;20230;-61
2022/04/13 02:13:39;;;;;;;10.30;5.63;;;;;;;7.21;49.62;101784.94;2570149;23;20152;-62
2022/04/13 02:14:40;;;;;;;8.07;5.00;;;;;;;7.27;50.44;101794.44;2570351;23;20234;-62
2022/04/13 02:15:42;;;;;;;8.87;5.03;;;;;;;7.28;50.38;101790.53;2570456;23;20203;-62
2022/04/13 02:16:43;;;;;;;11.45;5.60;;;;;;;6.87;50.31;101747.66;2570277;23;20152;-62
2022/04/13 02:17:43;;;;;;;8.00;5.43;;;;;;;7.20;50.02;101797.94;2570314;23;20152;-62
2022/04/13 02:18:44;;;;;;;8.67;5.37;;;;;;;7.23;50.20;101796.41;2570434;23;20379;-61
2022/04/13 02:19:44;;;;;;;9.20;5.23;;;;;;;7.24;50.33;101792.47;2570337;23;20147;-62
2022/04/13 02:20:45;;;;;;;7.80;5.20;;;;;;;7.23;49.64;101797.16;2570615;23;20152;-62
2022/04/13 02:21:45;;;;;;;11.13;4.80;;;;;;;7.25;50.39;101789.34;2570095;23;20144;-61
2022/04/13 02:22:46;;;;;;;8.33;5.30;;;;;;;7.23;49.98;101791.66;2570490;23;20148;-62
2022/04/13 02:23:46;;;;;;;9.50;5.00;;;;;;;7.29;50.43;101786.59;2570098;23;20151;-62
2022/04/13 02:24:47;;;;;;;7.83;5.17;;;;;;;7.30;50.45;101788.19;2570521;23;20234;-62
2022/04/13 02:25:47;;;;;;;8.47;5.20;;;;;;;7.28;50.18;101785.00;2570388;23;20155;-62
2022/04/13 02:26:48;;;;;;;8.10;4.90;;;;;;;6.76;50.09;101706.22;2570370;23;20157;-62
2022/04/13 02:27:48;;;;;;;8.57;5.30;;;;;;;7.30;50.30;101796.44;2557129;23;20555;-61
2022/04/13 02:28:49;;;;;;;7.90;5.17;;;;;;;7.35;50.11;101796.91;2557257;23;20657;-61
2022/04/13 02:29:50;;;;;;;9.77;5.10;;;;;;;7.35;50.10;101790.56;2570218;23;20151;-61
2022/04/13 02:30:50;;;;;;;7.27;4.93;;;;;;;7.30;50.71;101797.25;2570122;23;20682;-61
2022/04/13 02:31:51;;;;;;;8.93;5.60;;;;;;;7.13;50.25;101786.84;2570347;23;20182;-62
2022/04/13 02:32:51;;;;;;;10.23;4.83;;;;;;;7.15;50.80;101803.00;2557110;23;20210;-62
2022/04/13 02:33:53;;;;;;;10.17;5.43;;;;;;;7.08;50.55;101800.97;2556974;23;20160;-62
2022/04/13 02:34:54;;;;;;;7.35;4.95;;;;;;;6.66;50.79;101741.94;2570320;23;20149;-61
2022/04/13 02:35:55;;;;;;;7.23;5.10;;;;;;;7.00;51.25;101799.34;2570369;23;20162;-62
2022/04/13 02:36:56;;;;;;;9.07;5.33;;;;;;;7.07;51.20;101801.38;2570245;23;20175;-61
2022/04/13 02:37:57;;;;;;;7.35;5.57;;;;;;;6.99;50.86;101825.31;2570330;23;20163;-62
2022/04/13 02:38:57;;;;;;;6.30;4.97;;;;;;;6.99;51.03;101797.78;2570179;23;20150;-61
2022/04/13 02:39:58;;;;;;;10.47;5.50;;;;;;;7.00;50.81;101810.38;2570442;23;20656;-62
2022/04/13 02:40:59;;;;;;;7.50;5.67;;;;;;;6.60;51.10;101743.44;2570206;23;20178;-62
2022/04/13 02:42:00;;;;;;;7.90;5.18;;;;;;;6.97;50.71;101805.59;2570183;23;20544;-61
2022/04/13 02:43:00;;;;;;;9.17;5.90;;;;;;;6.99;51.19;101802.47;2569953;23;20178;-62
2022/04/13 02:44:01;;;;;;;8.43;5.40;;;;;;;6.95;50.59;101810.72;2570348;23;20155;-61
2022/04/13 02:45:03;;;;;;;8.20;5.47;;;;;;;6.90;51.45;101805.56;2569983;23;20589;-62
2022/04/13 02:46:04;;;;;;;9.70;5.80;;;;;;;6.90;51.24;101802.78;2570203;23;20159;-62
2022/04/13 02:47:04;;;;;;;12.40;5.57;;;;;;;6.93;50.71;101809.50;2570254;23;20163;-62
2022/04/13 02:48:05;;;;;;;15.90;6.10;;;;;;;6.22;51.30;101705.28;2570132;23;20152;-61
2022/04/13 02:49:06;;;;;;;12.02;5.82;;;;;;;6.85;51.04;101805.88;2570315;23;20234;-61
2022/04/13 02:50:07;;;;;;;9.73;5.77;;;;;;;6.37;51.01;101727.09;2570138;23;20625;-61
2022/04/13 02:51:08;;;;;;;9.02;6.07;;;;;;;6.83;51.70;101807.44;2570049;23;20166;-62
2022/04/13 02:52:08;;;;;;;10.87;6.23;;;;;;;6.73;51.54;101795.16;2570093;23;20174;-61
2022/04/13 02:53:09;;;;;;;11.43;5.97;;;;;;;6.80;51.36;101800.72;2569915;23;20629;-62
2022/04/13 02:54:09;;;;;;;8.93;5.90;;;;;;;6.78;51.93;101807.78;2570241;23;20155;-62
2022/04/13 02:55:12;;;;;;;9.37;6.33;;;;;;;6.78;52.03;101816.03;2570348;23;20178;-62
2022/04/13 02:56:13;;;;;;;8.30;6.40;;;;;;;6.81;52.12;101815.31;2570183;23;20231;-62
2022/04/13 02:57:13;;;;;;;9.80;6.13;;;;;;;6.35;52.27;101775.44;2570339;23;20155;-62
2022/04/13 02:58:14;;;;;;;9.77;6.03;;;;;;;6.80;52.34;101810.94;2570195;23;20301;-62
2022/04/13 02:59:14;;;;;;;10.37;6.10;;;;;;;6.25;52.43;101732.06;2570308;23;20621;-61
2022/04/13 03:00:15;;;;;;;9.63;5.80;;;;;;;6.68;52.98;101800.19;2570259;23;20601;-61
2022/04/13 03:01:16;;;;;;;7.93;6.18;;;;;;;6.76;52.70;101813.66;2570024;23;20559;-61
2022/04/13 03:02:17;;;;;;;11.30;5.83;;;;;;;6.78;52.58;101813.28;2570161;23;20190;-62
2022/04/13 03:03:18;;;;;;;7.90;6.10;;;;;;;6.76;52.36;101815.66;2569963;23;20209;-62
2022/04/13 03:04:18;;;;;;;8.57;6.50;;;;;;;6.70;52.63;101809.66;2570135;23;20158;-61
2022/04/13 03:05:19;;;;;;;7.93;5.83;;;;;;;6.67;53.06;101812.38;2570158;23;20150;-62
2022/04/13 03:06:19;;;;;;;7.90;5.40;;;;;;;6.69;52.74;101815.53;2570149;23;20152;-62
2022/04/13 03:07:22;;;;;;;10.13;6.43;;;;;;;6.71;53.18;101814.00;2570225;23;20174;-61
2022/04/13 03:08:23;;;;;;;9.05;6.22;;;;;;;6.62;53.11;101798.97;2570279;23;20500;-62
2022/04/13 03:09:24;;;;;;;10.27;5.67;;;;;;;6.07;52.96;101715.34;2570226;23;20153;-61
2022/04/13 03:10:24;;;;;;;9.90;6.67;;;;;;;6.70;53.10;101826.19;2570107;23;20712;-61
2022/04/13 03:11:25;;;;;;;9.87;6.27;;;;;;;6.65;53.41;101821.03;2569894;23;20154;-62
2022/04/13 03:12:26;;;;;;;8.73;6.27;;;;;;;5.76;53.34;101681.91;2570248;23;20153;-62
2022/04/13 03:13:27;;;;;;;9.48;6.70;;;;;;;6.58;53.10;101825.66;2569817;23;20153;-61
2022/04/13 03:14:27;;;;;;;10.03;6.83;;;;;;;6.50;53.52;101813.78;2570297;23;20225;-61
2022/04/13 03:15:28;;;;;;;9.27;5.77;;;;;;;6.58;52.76;101823.72;2570274;23;20153;-62
2022/04/13 03:16:28;;;;;;;10.93;6.03;;;;;;;6.57;52.20;101822.09;2570263;23;20544;-62
2022/04/13 03:17:29;;;;;;;10.07;6.00;;;;;;;6.60;51.40;101824.13;2570273;23;20147;-62
2022/04/13 03:18:30;;;;;;;12.43;6.47;;;;;;;6.61;50.95;101824.91;2570257;23;20181;-61
2022/04/13 03:19:31;;;;;;;23.77;7.22;;;;;;;6.58;50.57;101822.91;2556825;23;20231;-61
2022/04/13 03:20:33;;;;;;;25.43;6.60;;;;;;;6.57;50.33;101826.84;2557140;23;20151;-61
2022/04/13 03:21:34;;;;;;;16.80;5.97;;;;;;;6.38;50.17;101808.53;2569983;23;20150;-62
2022/04/13 03:22:34;;;;;;;13.25;6.10;;;;;;;6.39;49.98;101818.38;2570044;23;20642;-62
2022/04/13 03:23:35;;;;;;;15.80;6.50;;;;;;;6.43;50.40;101830.22;2569855;23;20539;-62
2022/04/13 03:24:36;;;;;;;18.73;7.37;;;;;;;6.33;50.29;101819.88;2570113;23;20182;-62
2022/04/13 03:25:36;;;;;;;15.80;7.13;;;;;;;6.37;50.92;101834.47;2570226;23;20589;-61
2022/04/13 03:26:37;;;;;;;15.10;6.30;;;;;;;6.32;51.75;101834.81;2570144;23;20151;-62
2022/04/13 03:27:37;;;;;;;13.83;6.43;;;;;;;6.33;51.63;101835.59;2556773;23;20206;-62
2022/04/13 03:28:38;;;;;;;12.30;6.50;;;;;;;6.30;52.00;101841.84;2556913;23;20159;-61
2022/04/13 03:29:39;;;;;;;9.67;6.80;;;;;;;6.28;52.05;101844.97;2569362;23;20158;-62
2022/04/13 03:30:39;;;;;;;12.47;6.60;;;;;;;6.28;51.73;101833.16;2570074;23;20147;-61
2022/04/13 03:31:40;;;;;;;11.60;6.23;;;;;;;6.28;52.26;101847.72;2570038;23;20208;-61
2022/04/13 03:32:40;;;;;;;11.83;6.43;;;;;;;6.26;52.79;101844.53;2570158;23;20172;-61
2022/04/13 03:33:41;;;;;;;9.60;7.10;;;;;;;6.28;53.35;101852.44;2569939;23;20156;-61
2022/04/13 03:34:41;;;;;;;10.80;7.40;;;;;;;6.28;53.63;101850.47;2570098;23;20152;-62
2022/04/13 03:35:42;;;;;;;12.00;6.80;;;;;;;6.29;52.66;101854.81;2570079;23;20152;-61
2022/04/13 03:36:42;;;;;;;10.87;7.57;;;;;;;6.29;53.38;101856.75;2556958;23;20589;-61
2022/04/13 03:37:43;;;;;;;9.77;7.30;;;;;;;6.32;54.29;101856.84;2557070;23;20204;-61
2022/04/13 03:38:44;;;;;;;10.70;7.90;;;;;;;6.28;54.25;101857.94;2570062;23;20535;-61
2022/04/13 03:39:44;;;;;;;11.17;7.47;;;;;;;6.04;54.23;101834.41;2570210;23;20175;-61
2022/04/13 03:40:45;;;;;;;12.27;7.50;;;;;;;6.21;54.55;101866.09;2570021;23;20151;-62
2022/04/13 03:41:46;;;;;;;14.53;8.07;;;;;;;6.23;54.39;101864.56;2569969;23;20171;-61
2022/04/13 03:42:46;;;;;;;13.00;8.13;;;;;;;6.25;53.98;101872.47;2570157;23;20154;-61
2022/04/13 03:43:47;;;;;;;12.37;8.50;;;;;;;6.27;54.57;101870.13;2569914;23;20557;-62
2022/04/13 03:44:47;;;;;;;13.73;8.47;;;;;;;6.06;54.31;101839.56;2570171;23;20158;-62
2022/04/13 03:45:48;;;;;;;11.47;6.77;;;;;;;6.16;54.00;101863.69;2569926;23;20198;-62
2022/04/13 03:46:49;;;;;;;14.37;7.00;;;;;;;6.24;53.09;101879.09;2570118;23;20502;-62
2022/04/13 03:47:49;;;;;;;13.03;8.40;;;;;;;5.94;53.16;101831.53;2570091;23;20155;-62
2022/04/13 03:48:50;;;;;;;18.60;10.27;;;;;;;6.25;54.09;101886.22;2570021;23;20158;-61
2022/04/13 03:49:50;;;;;;;19.03;13.03;;;;;;;6.14;55.04;101869.56;2570162;23;20206;-62
2022/04/13 03:50:55;;;;;;;24.60;12.27;;;;;;;6.20;54.00;101884.56;2570033;23;20155;-61
2022/04/13 03:51:56;;;;;;;20.63;10.10;;;;;;;6.24;53.82;101890.13;2570073;23;20603;-61
2022/04/13 03:52:57;;;;;;;15.45;10.27;;;;;;;6.01;53.91;101857.16;2569900;23;20495;-61
2022/04/13 03:53:57;;;;;;;13.87;9.03;;;;;;;5.27;53.95;101736.22;2570127;23;20167;-61
2022/04/13 03:54:58;;;;;;;15.90;9.83;;;;;;;6.27;53.46;101894.91;2570177;23;20219;-62
2022/04/13 03:55:58;;;;;;;15.10;9.57;;;;;;;6.28;53.13;101896.47;2570098;23;20209;-61
2022/04/13 03:56:59;;;;;;;19.67;8.00;;;;;;;6.29;52.99;101893.34;2570060;23;20162;-61
2022/04/13 03:57:59;;;;;;;18.50;10.63;;;;;;;6.30;52.98;101896.91;2570028;23;20159;-61
2022/04/13 03:59:01;;;;;;;14.77;8.40;;;;;;;6.31;53.14;101901.25;2570164;23;20155;-61
2022/04/13 04:00:04;;;;;;;12.98;8.23;;;;;;;6.31;52.70;101901.25;2570030;23;20615;-61
2022/04/13 04:01:05;;;;;;;14.70;10.50;;;;;;;6.31;54.66;101902.03;2569772;23;20500;-61
2022/04/13 04:02:06;;;;;;;16.20;9.30;;;;;;;5.64;54.67;101805.91;2569899;23;20180;-62
2022/04/13 04:03:06;;;;;;;13.30;8.87;;;;;;;6.27;54.66;101903.97;2569793;23;20206;-61
2022/04/13 04:04:08;;;;;;;16.33;9.00;;;;;;;6.11;55.44;101902.53;2570010;23;20152;-62
2022/04/13 04:05:09;;;;;;;13.27;9.00;;;;;;;6.22;55.29;101914.47;2569603;23;20562;-61
2022/04/13 04:06:10;;;;;;;16.98;9.95;;;;;;;6.22;54.89;101912.53;2568945;23;20155;-61
2022/04/13 04:07:10;;;;;;;21.43;11.57;;;;;;;6.27;54.21;101914.16;2556042;23;20160;-61
2022/04/13 04:08:11;;;;;;;20.63;9.97;;;;;;;6.29;54.32;101914.56;2556865;23;20156;-61
2022/04/13 04:09:11;;;;;;;27.93;12.60;;;;;;;6.32;54.75;101908.34;2569845;23;20602;-61
2022/04/13 04:10:12;;;;;;;31.03;11.43;;;;;;;6.32;54.87;101913.84;2569760;23;20176;-61
2022/04/13 04:11:13;;;;;;;28.57;10.77;;;;;;;6.35;55.25;101910.34;2569844;23;20159;-61
2022/04/13 04:12:14;;;;;;;28.37;10.83;;;;;;;5.46;54.52;101769.91;2569882;23;20153;-62
2022/04/13 04:13:14;;;;;;;24.33;10.02;;;;;;;6.39;54.84;101922.19;2569716;23;20195;-62
2022/04/13 04:14:15;;;;;;;17.27;9.67;;;;;;;6.38;54.32;101918.66;2569909;23;20153;-62
2022/04/13 04:15:16;;;;;;;18.60;9.40;;;;;;;6.40;54.29;101919.06;2569848;23;20157;-63
2022/04/13 04:16:16;;;;;;;22.87;8.93;;;;;;;6.40;55.08;101924.56;2569472;23;20218;-63
2022/04/13 04:17:17;;;;;;;16.03;8.23;;;;;;;6.41;53.12;101928.91;2569579;23;20156;-63
2022/04/13 04:18:17;;;;;;;23.53;9.20;;;;;;;6.41;54.22;101926.16;2569835;23;20155;-63
2022/04/13 04:19:18;;;;;;;21.50;10.57;;;;;;;6.39;53.27;101925.75;2569777;23;20669;-63
2022/04/13 04:20:18;;;;;;;15.87;9.87;;;;;;;6.40;53.91;101932.06;2569967;23;20149;-63
2022/04/13 04:21:19;;;;;;;18.47;13.10;;;;;;;6.27;52.83;101914.16;2569388;23;20153;-63
2022/04/13 04:22:23;;;;;;;20.53;13.47;;;;;;;6.38;54.00;101931.63;2569740;23;20504;-63
2022/04/13 04:23:23;;;;;;;21.83;12.35;;;;;;;6.29;53.31;101911.81;2569185;23;20152;-63
2022/04/13 04:24:26;;;;;;;17.20;11.23;;;;;;;6.38;53.21;101940.69;2570574;23;20148;-63
2022/04/13 04:25:26;;;;;;;18.05;10.98;;;;;;;6.30;52.47;101921.69;2570750;23;20156;-63
2022/04/13 04:26:27;;;;;;;19.67;11.27;;;;;;;6.37;52.45;101936.34;2569988;23;20175;-63
2022/04/13 04:27:27;;;;;;;20.17;10.13;;;;;;;6.38;52.62;101935.19;2568052;23;20160;-63
2022/04/13 04:28:28;;;;;;;24.90;10.83;;;;;;;5.57;52.60;101806.59;2569579;23;20557;-63
2022/04/13 04:29:29;;;;;;;22.75;10.98;;;;;;;5.89;52.67;101857.41;2570248;23;20206;-63
2022/04/13 04:30:31;;;;;;;23.23;11.90;;;;;;;6.39;53.60;101941.47;2569913;23;20155;-63
2022/04/13 04:31:49;;;;;;;28.88;11.85;;;;;;;6.40;52.86;101937.56;2569824;23;20148;-63
2022/04/13 04:32:50;;;;;;;42.65;11.27;;;;;;;6.43;52.82;101942.31;2569935;23;20132;-63
2022/04/13 04:33:51;;;;;;;47.67;19.90;;;;;;;5.94;52.90;101870.06;2569959;23;20163;-62
2022/04/13 04:34:52;;;;;;;41.03;20.53;;;;;;;6.43;52.33;101945.06;2569604;23;20155;-63
2022/04/13 04:35:53;;;;;;;43.75;17.65;;;;;;;6.24;52.51;101945.19;2570179;23;20470;-63
2022/04/13 04:36:53;;;;;;;27.40;13.87;;;;;;;6.42;52.47;101949.00;2570049;23;20159;-63
2022/04/13 04:37:54;;;;;;;34.83;14.70;;;;;;;6.42;52.64;101947.00;2567083;23;20476;-63
2022/04/13 04:38:54;;;;;;;35.57;13.87;;;;;;;6.41;52.16;101953.69;2569483;23;20593;-63
2022/04/13 04:39:55;;;;;;;29.33;12.23;;;;;;;6.43;52.34;101948.63;2555623;23;20169;-63
2022/04/13 04:40:55;;;;;;;27.73;11.40;;;;;;;5.54;51.98;101823.81;2554587;23;20149;-62
2022/04/13 04:41:56;;;;;;;22.33;10.90;;;;;;;6.44;52.42;101960.41;2568353;23;20172;-63
2022/04/13 04:43:00;;;;;;;20.73;9.23;;;;;;;6.14;52.56;101926.53;2568798;23;20206;-63
2022/04/13 04:44:00;;;;;;;21.05;12.48;;;;;;;6.44;52.09;101965.94;2567630;23;20629;-63
2022/04/13 04:45:01;;;;;;;16.53;9.47;;;;;;;6.45;52.27;101967.50;2569251;23;20497;-63
2022/04/13 04:46:01;;;;;;;18.70;8.90;;;;;;;6.45;52.49;101971.06;2556619;23;20235;-63